sensor_id;sensor_type;location;lat;lon;timestamp;temperature;humidity
47174;DHT22;36730;49.036;9.094;2023-01-30T00:01:17;21.00;41.40
47174;DHT22;36730;49.036;9.094;2023-01-30T00:03:43;21.00;41.50
47174;DHT22;36730;49.036;9.094;2023-01-30T00:06:09;21.00;41.30
47174;DHT22;36730;49.036;9.094;2023-01-30T00:08:35;21.00;41.50
47174;DHT22;36730;49.036;9.094;2023-01-30T00:11:04;21.00;41.50
47174;DHT22;36730;49.036;9.094;2023-01-30T00:13:30;21.00;41.60
47174;DHT22;36730;49.036;9.094;2023-01-30T00:15:55;21.00;41.60
47174;DHT22;36730;49.036;9.094;2023-01-30T00:18:21;21.00;41.50
47174;DHT22;36730;49.036;9.094;2023-01-30T00:20:46;21.00;41.50
47174;DHT22;36730;49.036;9.094;2023-01-30T00:23:11;20.90;41.40
47174;DHT22;36730;49.036;9.094;2023-01-30T00:25:37;20.90;41.40
47174;DHT22;36730;49.036;9.094;2023-01-30T00:28:02;20.90;41.60
47174;DHT22;36730;49.036;9.094;2023-01-30T00:30:28;20.90;41.70
47174;DHT22;36730;49.036;9.094;2023-01-30T00:32:55;20.90;41.40
47174;DHT22;36730;49.036;9.094;2023-01-30T00:35:20;21.00;41.40
47174;DHT22;36730;49.036;9.094;2023-01-30T00:37:46;20.90;41.60
47174;DHT22;36730;49.036;9.094;2023-01-30T00:40:12;20.90;41.40
47174;DHT22;36730;49.036;9.094;2023-01-30T00:42:37;20.90;41.40
47174;DHT22;36730;49.036;9.094;2023-01-30T00:45:22;20.90;41.40
47174;DHT22;36730;49.036;9.094;2023-01-30T00:48:06;20.90;41.40
47174;DHT22;36730;49.036;9.094;2023-01-30T00:50:31;20.90;41.50
47174;DHT22;36730;49.036;9.094;2023-01-30T00:53:10;20.90;41.40
47174;DHT22;36730;49.036;9.094;2023-01-30T00:55:35;20.90;41.20
47174;DHT22;36730;49.036;9.094;2023-01-30T00:58:01;20.90;41.30
47174;DHT22;36730;49.036;9.094;2023-01-30T01:00:26;20.90;41.10
47174;DHT22;36730;49.036;9.094;2023-01-30T01:02:52;20.90;41.20
47174;DHT22;36730;49.036;9.094;2023-01-30T01:05:17;20.90;41.30
47174;DHT22;36730;49.036;9.094;2023-01-30T01:07:43;20.90;41.30
47174;DHT22;36730;49.036;9.094;2023-01-30T01:10:08;20.90;42.10
47174;DHT22;36730;49.036;9.094;2023-01-30T01:12:43;20.90;41.40
47174;DHT22;36730;49.036;9.094;2023-01-30T01:15:09;20.90;41.30
47174;DHT22;36730;49.036;9.094;2023-01-30T01:17:36;20.90;41.30
47174;DHT22;36730;49.036;9.094;2023-01-30T01:20:01;20.90;41.30
47174;DHT22;36730;49.036;9.094;2023-01-30T01:22:27;20.80;41.20
47174;DHT22;36730;49.036;9.094;2023-01-30T01:24:52;20.90;41.30
47174;DHT22;36730;49.036;9.094;2023-01-30T01:27:18;20.80;41.40
47174;DHT22;36730;49.036;9.094;2023-01-30T01:29:44;20.80;41.20
47174;DHT22;36730;49.036;9.094;2023-01-30T01:32:09;20.80;41.20
47174;DHT22;36730;49.036;9.094;2023-01-30T01:34:34;20.90;41.20
47174;DHT22;36730;49.036;9.094;2023-01-30T01:37:00;20.90;41.20
47174;DHT22;36730;49.036;9.094;2023-01-30T01:39:25;20.80;41.10
47174;DHT22;36730;49.036;9.094;2023-01-30T01:42:11;20.80;41.30
47174;DHT22;36730;49.036;9.094;2023-01-30T01:44:56;20.80;41.30
47174;DHT22;36730;49.036;9.094;2023-01-30T01:47:22;20.80;41.30
47174;DHT22;36730;49.036;9.094;2023-01-30T01:49:48;20.80;41.00
47174;DHT22;36730;49.036;9.094;2023-01-30T01:52:14;20.80;41.30
47174;DHT22;36730;49.036;9.094;2023-01-30T01:54:51;20.80;41.40
47174;DHT22;36730;49.036;9.094;2023-01-30T01:57:22;20.80;41.30
47174;DHT22;36730;49.036;9.094;2023-01-30T02:00:02;20.80;41.20
47174;DHT22;36730;49.036;9.094;2023-01-30T02:02:29;20.80;41.10
47174;DHT22;36730;49.036;9.094;2023-01-30T02:04:55;20.80;41.30
47174;DHT22;36730;49.036;9.094;2023-01-30T02:07:41;20.80;41.20
47174;DHT22;36730;49.036;9.094;2023-01-30T02:10:10;20.80;41.20
47174;DHT22;36730;49.036;9.094;2023-01-30T02:12:37;20.80;41.30
47174;DHT22;36730;49.036;9.094;2023-01-30T02:15:03;20.80;41.10
47174;DHT22;36730;49.036;9.094;2023-01-30T02:17:30;20.80;41.20
47174;DHT22;36730;49.036;9.094;2023-01-30T02:46:11;20.70;41.30
47174;DHT22;36730;49.036;9.094;2023-01-30T02:48:39;20.70;41.20
47174;DHT22;36730;49.036;9.094;2023-01-30T02:51:08;20.70;41.20
47174;DHT22;36730;49.036;9.094;2023-01-30T02:53:35;20.70;41.20
47174;DHT22;36730;49.036;9.094;2023-01-30T02:56:01;20.70;41.30
47174;DHT22;36730;49.036;9.094;2023-01-30T02:58:28;20.70;41.20
47174;DHT22;36730;49.036;9.094;2023-01-30T03:01:01;20.70;41.20
47174;DHT22;36730;49.036;9.094;2023-01-30T03:04:36;20.70;41.30
47174;DHT22;36730;49.036;9.094;2023-01-30T03:09:05;20.70;41.30
47174;DHT22;36730;49.036;9.094;2023-01-30T03:14:25;20.70;41.30
47174;DHT22;36730;49.036;9.094;2023-01-30T03:16:51;20.70;41.30
47174;DHT22;36730;49.036;9.094;2023-01-30T03:19:18;20.70;41.30
47174;DHT22;36730;49.036;9.094;2023-01-30T03:21:43;20.70;41.30
47174;DHT22;36730;49.036;9.094;2023-01-30T03:24:09;20.70;41.30
47174;DHT22;36730;49.036;9.094;2023-01-30T03:26:36;20.70;41.30
47174;DHT22;36730;49.036;9.094;2023-01-30T03:29:03;20.70;41.30
47174;DHT22;36730;49.036;9.094;2023-01-30T03:31:29;20.70;41.30
47174;DHT22;36730;49.036;9.094;2023-01-30T03:33:54;20.70;41.30
47174;DHT22;36730;49.036;9.094;2023-01-30T03:36:20;20.70;41.40
47174;DHT22;36730;49.036;9.094;2023-01-30T03:38:45;20.70;41.40
47174;DHT22;36730;49.036;9.094;2023-01-30T03:41:11;20.70;41.30
47174;DHT22;36730;49.036;9.094;2023-01-30T03:43:36;20.70;41.40
47174;DHT22;36730;49.036;9.094;2023-01-30T03:46:02;20.70;41.40
47174;DHT22;36730;49.036;9.094;2023-01-30T03:48:27;20.70;41.40
47174;DHT22;36730;49.036;9.094;2023-01-30T03:50:53;20.70;41.40
47174;DHT22;36730;49.036;9.094;2023-01-30T03:53:18;20.70;41.40
47174;DHT22;36730;49.036;9.094;2023-01-30T03:55:44;20.70;41.30
47174;DHT22;36730;49.036;9.094;2023-01-30T03:58:09;20.70;41.30
47174;DHT22;36730;49.036;9.094;2023-01-30T04:00:35;20.70;41.40
47174;DHT22;36730;49.036;9.094;2023-01-30T04:03:00;20.70;41.20
47174;DHT22;36730;49.036;9.094;2023-01-30T04:05:26;20.70;41.20
47174;DHT22;36730;49.036;9.094;2023-01-30T04:07:53;20.70;41.10
47174;DHT22;36730;49.036;9.094;2023-01-30T04:10:20;20.70;41.30
47174;DHT22;36730;49.036;9.094;2023-01-30T04:12:45;20.70;41.30
47174;DHT22;36730;49.036;9.094;2023-01-30T04:15:11;20.80;41.40
47174;DHT22;36730;49.036;9.094;2023-01-30T04:17:37;20.80;41.50
47174;DHT22;36730;49.036;9.094;2023-01-30T04:20:02;20.80;41.40
47174;DHT22;36730;49.036;9.094;2023-01-30T04:22:28;20.80;41.40
47174;DHT22;36730;49.036;9.094;2023-01-30T04:24:54;20.80;41.40
47174;DHT22;36730;49.036;9.094;2023-01-30T04:27:19;20.80;41.40
47174;DHT22;36730;49.036;9.094;2023-01-30T04:29:44;20.90;41.40
47174;DHT22;36730;49.036;9.094;2023-01-30T04:32:10;20.90;41.50
47174;DHT22;36730;49.036;9.094;2023-01-30T04:34:35;20.90;41.50
47174;DHT22;36730;49.036;9.094;2023-01-30T04:37:01;21.00;41.50
47174;DHT22;36730;49.036;9.094;2023-01-30T04:39:26;21.00;41.50
47174;DHT22;36730;49.036;9.094;2023-01-30T04:41:52;21.00;41.50
47174;DHT22;36730;49.036;9.094;2023-01-30T04:44:17;21.10;41.90
47174;DHT22;36730;49.036;9.094;2023-01-30T04:46:43;21.10;42.40
47174;DHT22;36730;49.036;9.094;2023-01-30T04:49:09;21.10;42.00
47174;DHT22;36730;49.036;9.094;2023-01-30T04:51:34;21.10;42.60
47174;DHT22;36730;49.036;9.094;2023-01-30T04:53:59;21.20;42.30
47174;DHT22;36730;49.036;9.094;2023-01-30T04:56:25;21.20;42.90
47174;DHT22;36730;49.036;9.094;2023-01-30T04:58:50;21.20;42.10
47174;DHT22;36730;49.036;9.094;2023-01-30T05:01:29;21.30;41.90
47174;DHT22;36730;49.036;9.094;2023-01-30T05:03:54;21.30;42.40
47174;DHT22;36730;49.036;9.094;2023-01-30T05:06:20;21.30;42.50
47174;DHT22;36730;49.036;9.094;2023-01-30T05:08:47;21.40;42.50
47174;DHT22;36730;49.036;9.094;2023-01-30T05:11:12;21.40;42.70
47174;DHT22;36730;49.036;9.094;2023-01-30T05:13:38;21.50;43.40
47174;DHT22;36730;49.036;9.094;2023-01-30T05:16:03;21.40;43.70
47174;DHT22;36730;49.036;9.094;2023-01-30T05:18:29;21.50;43.00
47174;DHT22;36730;49.036;9.094;2023-01-30T05:21:01;21.60;43.30
47174;DHT22;36730;49.036;9.094;2023-01-30T05:23:27;21.60;42.40
47174;DHT22;36730;49.036;9.094;2023-01-30T05:25:52;21.60;42.70
47174;DHT22;36730;49.036;9.094;2023-01-30T05:28:18;21.70;43.00
47174;DHT22;36730;49.036;9.094;2023-01-30T05:30:43;21.80;42.90
47174;DHT22;36730;49.036;9.094;2023-01-30T05:33:09;21.80;43.80
47174;DHT22;36730;49.036;9.094;2023-01-30T05:35:34;21.80;43.70
47174;DHT22;36730;49.036;9.094;2023-01-30T05:37:59;21.80;43.40
47174;DHT22;36730;49.036;9.094;2023-01-30T05:40:26;21.80;44.00
47174;DHT22;36730;49.036;9.094;2023-01-30T05:42:52;21.80;44.50
47174;DHT22;36730;49.036;9.094;2023-01-30T05:45:18;21.80;44.30
47174;DHT22;36730;49.036;9.094;2023-01-30T05:47:43;21.80;44.60
47174;DHT22;36730;49.036;9.094;2023-01-30T05:50:09;21.90;44.60
47174;DHT22;36730;49.036;9.094;2023-01-30T05:52:35;21.90;43.30
47174;DHT22;36730;49.036;9.094;2023-01-30T05:55:00;22.00;43.90
47174;DHT22;36730;49.036;9.094;2023-01-30T05:57:25;22.00;43.90
47174;DHT22;36730;49.036;9.094;2023-01-30T05:59:51;22.00;43.90
47174;DHT22;36730;49.036;9.094;2023-01-30T06:02:17;22.00;43.40
47174;DHT22;36730;49.036;9.094;2023-01-30T06:04:42;22.10;43.90
47174;DHT22;36730;49.036;9.094;2023-01-30T06:07:07;22.10;44.70
47174;DHT22;36730;49.036;9.094;2023-01-30T06:09:33;22.10;44.90
47174;DHT22;36730;49.036;9.094;2023-01-30T06:11:58;22.10;44.50
47174;DHT22;36730;49.036;9.094;2023-01-30T06:14:24;22.20;45.20
47174;DHT22;36730;49.036;9.094;2023-01-30T06:16:49;22.10;45.30
47174;DHT22;36730;49.036;9.094;2023-01-30T06:19:15;22.20;45.40
47174;DHT22;36730;49.036;9.094;2023-01-30T06:21:40;22.20;44.60
47174;DHT22;36730;49.036;9.094;2023-01-30T06:24:06;22.20;44.50
47174;DHT22;36730;49.036;9.094;2023-01-30T06:26:31;22.30;45.00
47174;DHT22;36730;49.036;9.094;2023-01-30T06:28:57;22.30;44.90
47174;DHT22;36730;49.036;9.094;2023-01-30T06:31:22;22.30;45.80
47174;DHT22;36730;49.036;9.094;2023-01-30T06:33:48;22.40;45.00
47174;DHT22;36730;49.036;9.094;2023-01-30T06:36:13;22.40;45.30
47174;DHT22;36730;49.036;9.094;2023-01-30T06:38:39;22.40;45.30
47174;DHT22;36730;49.036;9.094;2023-01-30T06:41:04;22.40;46.20
47174;DHT22;36730;49.036;9.094;2023-01-30T06:43:30;22.40;45.90
47174;DHT22;36730;49.036;9.094;2023-01-30T06:45:57;22.40;45.00
47174;DHT22;36730;49.036;9.094;2023-01-30T06:48:22;22.40;45.80
47174;DHT22;36730;49.036;9.094;2023-01-30T06:50:48;22.50;45.70
47174;DHT22;36730;49.036;9.094;2023-01-30T06:53:13;22.50;46.00
47174;DHT22;36730;49.036;9.094;2023-01-30T06:55:39;22.50;46.10
47174;DHT22;36730;49.036;9.094;2023-01-30T07:00:30;22.60;46.00
47174;DHT22;36730;49.036;9.094;2023-01-30T07:02:55;22.60;46.20
47174;DHT22;36730;49.036;9.094;2023-01-30T07:05:21;22.60;45.60
47174;DHT22;36730;49.036;9.094;2023-01-30T07:07:46;22.70;46.80
47174;DHT22;36730;49.036;9.094;2023-01-30T07:10:12;22.70;46.20
47174;DHT22;36730;49.036;9.094;2023-01-30T07:12:37;22.80;46.40
47174;DHT22;36730;49.036;9.094;2023-01-30T07:15:04;22.70;47.50
47174;DHT22;36730;49.036;9.094;2023-01-30T07:17:29;22.70;46.90
47174;DHT22;36730;49.036;9.094;2023-01-30T07:19:55;22.80;46.50
47174;DHT22;36730;49.036;9.094;2023-01-30T07:22:20;22.80;46.10
47174;DHT22;36730;49.036;9.094;2023-01-30T07:24:46;22.80;46.70
47174;DHT22;36730;49.036;9.094;2023-01-30T07:27:11;22.90;47.20
47174;DHT22;36730;49.036;9.094;2023-01-30T07:29:37;22.90;46.10
47174;DHT22;36730;49.036;9.094;2023-01-30T07:32:04;23.00;47.60
47174;DHT22;36730;49.036;9.094;2023-01-30T07:34:29;23.00;47.60
47174;DHT22;36730;49.036;9.094;2023-01-30T07:36:55;23.00;47.70
47174;DHT22;36730;49.036;9.094;2023-01-30T07:39:20;23.00;47.70
47174;DHT22;36730;49.036;9.094;2023-01-30T07:41:46;23.00;47.50
47174;DHT22;36730;49.036;9.094;2023-01-30T07:44:12;23.00;47.80
47174;DHT22;36730;49.036;9.094;2023-01-30T07:46:37;23.10;48.30
47174;DHT22;36730;49.036;9.094;2023-01-30T07:49:03;23.10;47.60
47174;DHT22;36730;49.036;9.094;2023-01-30T07:51:29;23.10;47.20
47174;DHT22;36730;49.036;9.094;2023-01-30T07:53:54;23.10;46.80
47174;DHT22;36730;49.036;9.094;2023-01-30T07:56:20;23.10;47.80
47174;DHT22;36730;49.036;9.094;2023-01-30T07:58:49;23.10;47.70
47174;DHT22;36730;49.036;9.094;2023-01-30T08:01:15;23.20;47.30
47174;DHT22;36730;49.036;9.094;2023-01-30T08:03:40;23.20;47.30
47174;DHT22;36730;49.036;9.094;2023-01-30T08:06:08;23.20;47.80
47174;DHT22;36730;49.036;9.094;2023-01-30T08:08:33;23.30;47.40
47174;DHT22;36730;49.036;9.094;2023-01-30T08:10:59;23.30;48.00
47174;DHT22;36730;49.036;9.094;2023-01-30T08:13:24;23.20;48.80
47174;DHT22;36730;49.036;9.094;2023-01-30T08:15:50;23.20;49.50
47174;DHT22;36730;49.036;9.094;2023-01-30T08:18:15;23.30;49.10
47174;DHT22;36730;49.036;9.094;2023-01-30T08:20:41;23.30;49.20
47174;DHT22;36730;49.036;9.094;2023-01-30T08:23:07;23.30;49.50
47174;DHT22;36730;49.036;9.094;2023-01-30T08:25:32;23.30;49.60
47174;DHT22;36730;49.036;9.094;2023-01-30T08:27:59;23.30;49.60
47174;DHT22;36730;49.036;9.094;2023-01-30T08:30:25;23.30;51.00
47174;DHT22;36730;49.036;9.094;2023-01-30T08:32:51;23.30;47.90
47174;DHT22;36730;49.036;9.094;2023-01-30T08:35:17;23.30;50.00
47174;DHT22;36730;49.036;9.094;2023-01-30T08:37:42;23.30;49.80
47174;DHT22;36730;49.036;9.094;2023-01-30T08:40:08;23.40;48.70
47174;DHT22;36730;49.036;9.094;2023-01-30T08:42:34;23.40;49.80
47174;DHT22;36730;49.036;9.094;2023-01-30T08:44:59;23.40;49.80
47174;DHT22;36730;49.036;9.094;2023-01-30T08:47:25;23.50;49.20
47174;DHT22;36730;49.036;9.094;2023-01-30T08:49:50;23.50;49.70
47174;DHT22;36730;49.036;9.094;2023-01-30T08:52:17;23.50;49.80
47174;DHT22;36730;49.036;9.094;2023-01-30T08:54:43;23.50;50.40
47174;DHT22;36730;49.036;9.094;2023-01-30T08:57:08;23.50;50.70
47174;DHT22;36730;49.036;9.094;2023-01-30T08:59:33;23.50;49.90
47174;DHT22;36730;49.036;9.094;2023-01-30T09:01:59;23.50;51.50
47174;DHT22;36730;49.036;9.094;2023-01-30T09:04:24;23.50;51.00
47174;DHT22;36730;49.036;9.094;2023-01-30T09:06:50;23.50;51.90
47174;DHT22;36730;49.036;9.094;2023-01-30T09:09:16;23.60;52.00
47174;DHT22;36730;49.036;9.094;2023-01-30T09:11:41;23.60;52.00
47174;DHT22;36730;49.036;9.094;2023-01-30T09:14:07;23.60;51.50
47174;DHT22;36730;49.036;9.094;2023-01-30T09:16:32;23.60;52.00
47174;DHT22;36730;49.036;9.094;2023-01-30T09:18:58;23.60;49.90
47174;DHT22;36730;49.036;9.094;2023-01-30T09:21:23;23.60;51.20
47174;DHT22;36730;49.036;9.094;2023-01-30T09:23:49;23.70;51.40
47174;DHT22;36730;49.036;9.094;2023-01-30T09:26:14;23.70;51.60
47174;DHT22;36730;49.036;9.094;2023-01-30T09:28:40;23.70;51.60
47174;DHT22;36730;49.036;9.094;2023-01-30T09:31:06;23.70;50.60
47174;DHT22;36730;49.036;9.094;2023-01-30T09:33:31;23.70;52.40
47174;DHT22;36730;49.036;9.094;2023-01-30T09:35:57;23.70;52.10
47174;DHT22;36730;49.036;9.094;2023-01-30T09:38:22;23.80;52.80
47174;DHT22;36730;49.036;9.094;2023-01-30T09:49:02;23.90;53.10
47174;DHT22;36730;49.036;9.094;2023-01-30T09:53:43;23.90;53.20
47174;DHT22;36730;49.036;9.094;2023-01-30T09:56:14;23.90;52.80
47174;DHT22;36730;49.036;9.094;2023-01-30T09:58:58;24.00;52.60
47174;DHT22;36730;49.036;9.094;2023-01-30T10:06:50;23.90;51.70
47174;DHT22;36730;49.036;9.094;2023-01-30T10:09:23;24.00;53.20
47174;DHT22;36730;49.036;9.094;2023-01-30T10:12:09;23.90;52.90
47174;DHT22;36730;49.036;9.094;2023-01-30T10:14:45;24.00;53.00
47174;DHT22;36730;49.036;9.094;2023-01-30T10:17:22;24.00;52.00
47174;DHT22;36730;49.036;9.094;2023-01-30T10:27:25;24.10;53.50
47174;DHT22;36730;49.036;9.094;2023-01-30T10:29:53;24.10;53.40
47174;DHT22;36730;49.036;9.094;2023-01-30T10:34:57;24.10;52.70
47174;DHT22;36730;49.036;9.094;2023-01-30T10:40:23;24.20;57.70
47174;DHT22;36730;49.036;9.094;2023-01-30T10:45:23;24.20;54.00
47174;DHT22;36730;49.036;9.094;2023-01-30T10:50:47;24.20;54.40
47174;DHT22;36730;49.036;9.094;2023-01-30T10:53:16;24.20;52.60
47174;DHT22;36730;49.036;9.094;2023-01-30T10:55:45;24.20;53.60
47174;DHT22;36730;49.036;9.094;2023-01-30T11:03:14;24.30;54.00
47174;DHT22;36730;49.036;9.094;2023-01-30T11:06:24;24.30;53.90
47174;DHT22;36730;49.036;9.094;2023-01-30T11:08:31;24.40;53.90
47174;DHT22;36730;49.036;9.094;2023-01-30T11:10:57;24.30;54.10
47174;DHT22;36730;49.036;9.094;2023-01-30T11:13:32;24.30;54.70
47174;DHT22;36730;49.036;9.094;2023-01-30T11:16:07;24.40;54.30
47174;DHT22;36730;49.036;9.094;2023-01-30T11:18:46;24.40;54.70
47174;DHT22;36730;49.036;9.094;2023-01-30T11:21:22;24.40;54.60
47174;DHT22;36730;49.036;9.094;2023-01-30T11:23:48;24.40;54.80
47174;DHT22;36730;49.036;9.094;2023-01-30T11:26:17;24.50;54.60
47174;DHT22;36730;49.036;9.094;2023-01-30T11:28:43;24.50;54.20
47174;DHT22;36730;49.036;9.094;2023-01-30T11:31:15;24.50;54.60
47174;DHT22;36730;49.036;9.094;2023-01-30T11:33:41;24.50;53.20
47174;DHT22;36730;49.036;9.094;2023-01-30T11:36:22;24.50;55.30
47174;DHT22;36730;49.036;9.094;2023-01-30T11:38:56;24.60;51.90
47174;DHT22;36730;49.036;9.094;2023-01-30T11:41:21;24.60;53.10
47174;DHT22;36730;49.036;9.094;2023-01-30T11:43:47;24.60;54.10
47174;DHT22;36730;49.036;9.094;2023-01-30T11:46:15;24.60;53.00
47174;DHT22;36730;49.036;9.094;2023-01-30T11:48:47;24.60;54.00
47174;DHT22;36730;49.036;9.094;2023-01-30T11:51:14;24.60;55.20
47174;DHT22;36730;49.036;9.094;2023-01-30T11:56:19;24.60;53.90
47174;DHT22;36730;49.036;9.094;2023-01-30T11:58:48;24.60;58.50
47174;DHT22;36730;49.036;9.094;2023-01-30T12:01:16;24.60;54.00
47174;DHT22;36730;49.036;9.094;2023-01-30T12:03:52;24.60;54.00
47174;DHT22;36730;49.036;9.094;2023-01-30T12:06:22;24.60;54.90
47174;DHT22;36730;49.036;9.094;2023-01-30T12:08:50;24.60;54.10
47174;DHT22;36730;49.036;9.094;2023-01-30T12:11:23;24.60;54.00
47174;DHT22;36730;49.036;9.094;2023-01-30T12:13:49;24.70;53.80
47174;DHT22;36730;49.036;9.094;2023-01-30T12:19:21;24.70;54.50
47174;DHT22;36730;49.036;9.094;2023-01-30T12:21:51;24.80;54.10
47174;DHT22;36730;49.036;9.094;2023-01-30T12:24:21;24.70;53.40
47174;DHT22;36730;49.036;9.094;2023-01-30T12:26:51;24.80;54.60
47174;DHT22;36730;49.036;9.094;2023-01-30T12:30:01;24.80;54.60
47174;DHT22;36730;49.036;9.094;2023-01-30T12:32:11;24.80;53.70
47174;DHT22;36730;49.036;9.094;2023-01-30T12:34:38;24.80;54.10
47174;DHT22;36730;49.036;9.094;2023-01-30T12:37:06;24.80;53.90
47174;DHT22;36730;49.036;9.094;2023-01-30T13:00:40;25.00;54.00
47174;DHT22;36730;49.036;9.094;2023-01-30T13:03:16;25.00;55.10
47174;DHT22;36730;49.036;9.094;2023-01-30T13:05:44;25.00;55.70
47174;DHT22;36730;49.036;9.094;2023-01-30T13:08:19;24.90;54.90
47174;DHT22;36730;49.036;9.094;2023-01-30T13:10:49;25.00;54.80
47174;DHT22;36730;49.036;9.094;2023-01-30T13:13:31;25.00;57.50
47174;DHT22;36730;49.036;9.094;2023-01-30T13:16:03;25.00;53.10
47174;DHT22;36730;49.036;9.094;2023-01-30T13:21:15;25.00;54.40
47174;DHT22;36730;49.036;9.094;2023-01-30T13:26:32;25.10;54.20
47174;DHT22;36730;49.036;9.094;2023-01-30T13:29:23;25.10;52.90
47174;DHT22;36730;49.036;9.094;2023-01-30T13:31:51;25.10;53.20
47174;DHT22;36730;49.036;9.094;2023-01-30T13:36:59;25.10;55.10
47174;DHT22;36730;49.036;9.094;2023-01-30T13:39:37;25.10;53.60
47174;DHT22;36730;49.036;9.094;2023-01-30T13:42:06;25.10;54.90
47174;DHT22;36730;49.036;9.094;2023-01-30T13:44:31;25.10;54.30
47174;DHT22;36730;49.036;9.094;2023-01-30T13:47:02;25.20;53.80
47174;DHT22;36730;49.036;9.094;2023-01-30T13:52:22;25.20;56.40
47174;DHT22;36730;49.036;9.094;2023-01-30T14:02:22;25.20;53.20
47174;DHT22;36730;49.036;9.094;2023-01-30T14:04:49;25.30;60.50
47174;DHT22;36730;49.036;9.094;2023-01-30T14:07:15;25.20;54.20
47174;DHT22;36730;49.036;9.094;2023-01-30T14:09:42;25.30;54.50
47174;DHT22;36730;49.036;9.094;2023-01-30T14:12:18;25.20;55.70
47174;DHT22;36730;49.036;9.094;2023-01-30T14:14:56;25.20;54.20
47174;DHT22;36730;49.036;9.094;2023-01-30T14:17:23;25.20;54.60
47174;DHT22;36730;49.036;9.094;2023-01-30T14:19:55;25.20;55.10
47174;DHT22;36730;49.036;9.094;2023-01-30T14:22:22;25.20;55.60
47174;DHT22;36730;49.036;9.094;2023-01-30T14:27:32;25.30;55.00
47174;DHT22;36730;49.036;9.094;2023-01-30T14:29:57;25.30;55.40
47174;DHT22;36730;49.036;9.094;2023-01-30T14:39:55;25.40;55.70
47174;DHT22;36730;49.036;9.094;2023-01-30T14:42:25;25.40;55.80
47174;DHT22;36730;49.036;9.094;2023-01-30T14:47:35;25.40;56.10
47174;DHT22;36730;49.036;9.094;2023-01-30T14:50:00;25.40;55.90
47174;DHT22;36730;49.036;9.094;2023-01-30T14:52:30;25.40;56.10
47174;DHT22;36730;49.036;9.094;2023-01-30T14:54:58;25.50;54.60
47174;DHT22;36730;49.036;9.094;2023-01-30T14:57:25;25.50;54.30
47174;DHT22;36730;49.036;9.094;2023-01-30T15:00:04;25.50;55.20
47174;DHT22;36730;49.036;9.094;2023-01-30T15:02:40;25.50;54.80
47174;DHT22;36730;49.036;9.094;2023-01-30T15:05:17;25.60;55.10
47174;DHT22;36730;49.036;9.094;2023-01-30T15:10:16;25.60;55.10
47174;DHT22;36730;49.036;9.094;2023-01-30T15:20:25;25.40;53.10
47174;DHT22;36730;49.036;9.094;2023-01-30T15:25:37;25.40;52.90
47174;DHT22;36730;49.036;9.094;2023-01-30T15:33:21;25.40;53.40
47174;DHT22;36730;49.036;9.094;2023-01-30T15:35:48;25.40;52.70
47174;DHT22;36730;49.036;9.094;2023-01-30T15:38:32;25.40;54.00
47174;DHT22;36730;49.036;9.094;2023-01-30T15:41:04;25.40;53.30
47174;DHT22;36730;49.036;9.094;2023-01-30T15:43:47;25.40;53.70
47174;DHT22;36730;49.036;9.094;2023-01-30T15:51:21;25.40;53.10
47174;DHT22;36730;49.036;9.094;2023-01-30T15:53:48;25.40;52.60
47174;DHT22;36730;49.036;9.094;2023-01-30T15:56:18;25.40;53.10
47174;DHT22;36730;49.036;9.094;2023-01-30T15:58:44;25.40;56.40
47174;DHT22;36730;49.036;9.094;2023-01-30T16:01:11;25.40;52.80
47174;DHT22;36730;49.036;9.094;2023-01-30T16:03:41;25.40;52.60
47174;DHT22;36730;49.036;9.094;2023-01-30T16:06:18;25.40;53.10
47174;DHT22;36730;49.036;9.094;2023-01-30T16:08:53;25.40;53.10
47174;DHT22;36730;49.036;9.094;2023-01-30T16:11:30;25.40;52.30
47174;DHT22;36730;49.036;9.094;2023-01-30T16:13:56;25.40;52.50
47174;DHT22;36730;49.036;9.094;2023-01-30T16:16:21;25.50;52.70
47174;DHT22;36730;49.036;9.094;2023-01-30T16:18:51;25.50;52.60
47174;DHT22;36730;49.036;9.094;2023-01-30T16:21:20;25.50;53.10
47174;DHT22;36730;49.036;9.094;2023-01-30T16:23:59;25.50;53.00
47174;DHT22;36730;49.036;9.094;2023-01-30T16:26:25;25.50;54.10
47174;DHT22;36730;49.036;9.094;2023-01-30T16:28:57;25.50;54.80
47174;DHT22;36730;49.036;9.094;2023-01-30T16:31:23;25.40;53.40
47174;DHT22;36730;49.036;9.094;2023-01-30T16:33:50;25.40;53.20
47174;DHT22;36730;49.036;9.094;2023-01-30T16:38:44;25.40;53.10
47174;DHT22;36730;49.036;9.094;2023-01-30T16:49:21;25.40;53.10
47174;DHT22;36730;49.036;9.094;2023-01-30T16:51:48;25.40;52.40
47174;DHT22;36730;49.036;9.094;2023-01-30T16:54:20;25.30;52.80
47174;DHT22;36730;49.036;9.094;2023-01-30T16:56:49;25.30;52.30
47174;DHT22;36730;49.036;9.094;2023-01-30T16:59:32;25.30;52.40
47174;DHT22;36730;49.036;9.094;2023-01-30T17:01:57;25.30;52.20
47174;DHT22;36730;49.036;9.094;2023-01-30T17:04:26;25.30;53.00
47174;DHT22;36730;49.036;9.094;2023-01-30T17:06:54;25.20;52.80
47174;DHT22;36730;49.036;9.094;2023-01-30T17:09:33;25.20;52.70
47174;DHT22;36730;49.036;9.094;2023-01-30T17:11:59;25.20;52.60
47174;DHT22;36730;49.036;9.094;2023-01-30T17:14:27;25.20;52.90
47174;DHT22;36730;49.036;9.094;2023-01-30T17:17:03;25.10;52.90
47174;DHT22;36730;49.036;9.094;2023-01-30T17:19:31;25.10;52.60
47174;DHT22;36730;49.036;9.094;2023-01-30T17:21:57;25.10;52.70
47174;DHT22;36730;49.036;9.094;2023-01-30T17:24:24;25.10;52.70
47174;DHT22;36730;49.036;9.094;2023-01-30T17:26:51;25.10;52.70
47174;DHT22;36730;49.036;9.094;2023-01-30T17:29:17;25.10;53.50
47174;DHT22;36730;49.036;9.094;2023-01-30T17:31:47;25.10;52.60
47174;DHT22;36730;49.036;9.094;2023-01-30T17:34:14;25.10;52.60
47174;DHT22;36730;49.036;9.094;2023-01-30T17:36:40;25.10;52.50
47174;DHT22;36730;49.036;9.094;2023-01-30T17:39:10;25.10;52.40
47174;DHT22;36730;49.036;9.094;2023-01-30T17:41:36;25.00;52.50
47174;DHT22;36730;49.036;9.094;2023-01-30T17:44:02;25.00;52.70
47174;DHT22;36730;49.036;9.094;2023-01-30T17:48:59;25.00;52.80
47174;DHT22;36730;49.036;9.094;2023-01-30T17:51:24;24.90;52.70
47174;DHT22;36730;49.036;9.094;2023-01-30T17:53:50;24.90;52.70
47174;DHT22;36730;49.036;9.094;2023-01-30T17:56:37;24.90;52.70
47174;DHT22;36730;49.036;9.094;2023-01-30T17:59:03;24.90;52.60
47174;DHT22;36730;49.036;9.094;2023-01-30T18:01:28;24.90;52.50
47174;DHT22;36730;49.036;9.094;2023-01-30T18:03:54;24.80;52.40
47174;DHT22;36730;49.036;9.094;2023-01-30T18:06:19;24.80;52.40
47174;DHT22;36730;49.036;9.094;2023-01-30T18:08:45;24.80;52.40
47174;DHT22;36730;49.036;9.094;2023-01-30T18:11:10;24.80;52.50
47174;DHT22;36730;49.036;9.094;2023-01-30T18:13:38;24.80;52.50
47174;DHT22;36730;49.036;9.094;2023-01-30T18:16:04;24.80;52.50
47174;DHT22;36730;49.036;9.094;2023-01-30T18:18:30;24.80;52.90
47174;DHT22;36730;49.036;9.094;2023-01-30T18:20:56;24.80;52.90
47174;DHT22;36730;49.036;9.094;2023-01-30T18:23:21;24.80;53.00